Witt, Illinois
Current Conditions -  °F | °C
As of 6:15 PM on Sunday 25 Jan 2015 (Local Time) from KTAZ Reporting Station
Overcast Overcast  
Wind Chill: 20°   Ceiling: 1200
Heat Index: 32°   Visibility: 10mi
Dew Point: 30°   Wind: 21mph
Humidity: 93%   Direction: 360°N
Pressure: 29.85"   Gusts: 30mph
Location:  39.26°N, 89.35°W
Report Text: KTAZ 260015Z AUTO 36018G26KT 10SM OVC012 00/M01 A2985 RMK AO2
Loading
Personal Weather Stations






























Interactive Weather Map New forecast layout! Learn more

10-Day Weather Forecast

Advertisements
Track Severe Weather on mobile